Peekskill, New York
Current Conditions -  °F | °C
As of 5:45 AM on Thursday 18 Dec 2014 (Local Time) from KSWF Reporting Station
Overcast Overcast  
Wind Chill: 25°   Ceiling: 3500
Heat Index: 36°   Visibility: 10mi
Dew Point: 25°   Wind: 18mph
Humidity: 65%   Direction: 290°WNW
Pressure: 29.9"   Gusts: 30mph
Location:  41.29°N, 73.92°W
Report Text: KSWF 181045Z 29016G26KT 10SM OVC035 02/M04 A2990
Loading
Personal Weather Stations






























Interactive Weather Map New forecast layout! Learn more

10-Day Weather Forecast

Advertisements
Track Severe Weather on mobile